GEC8392 EDDF-UACC
Flight info
| Callsign | GEC8392 |
|---|---|
| Flight time | N/A |
| Altitude | 31000 |
| Route | SULUS7S/18 SULUS Z650 NOGRA DCT VEMUT DCT PEPIK DCT NORAH DCT DINRO DCT UDROS UM859 BAMUP/N0479F330 UM859 KARDE UN644 ROLIN N644 ODILI DCT BARAD M747 SUBUT T916 LEYLA N161 GASBI/K0882F330 N161 MASAV N55 OGANU P574 VETUB VETUB2H |
| Aircraft | MD11/H-SDE1E2E3FGHIJ2J3J4J5M1RWXY/LB1D1 |
Departure
| Time | 2026-05-04 13:42 |
|---|---|
| Airport | Frankfurt Main Airport (EDDF) |
Arrival
| Time | N/A |
|---|---|
| Airport | Nursultan Nazarbayev International Airport (UACC) |
| Time | Latitude | Longitude | Altitude | Speed | Heading |
|---|---|---|---|---|---|
| 2026-05-04 12:55 | 50.04006 | 8.54546 | 360 ft | 0 kts | 249° |
| 2026-05-04 13:25 | 50.04007 | 8.54551 | 360 ft | 2 kts | 249° |
| 2026-05-04 13:25 | 50.04013 | 8.54573 | 360 ft | 2 kts | 249° |
| 2026-05-04 13:26 | 50.04017 | 8.54588 | 360 ft | 1 kts | 249° |
| 2026-05-04 13:26 | 50.04023 | 8.54608 | 360 ft | 2 kts | 233° |
| 2026-05-04 13:26 | 50.04033 | 8.54624 | 360 ft | 2 kts | 216° |
| 2026-05-04 13:26 | 50.04046 | 8.54635 | 360 ft | 2 kts | 200° |
| 2026-05-04 13:27 | 50.04061 | 8.54640 | 360 ft | 2 kts | 183° |
| 2026-05-04 13:27 | 50.04075 | 8.54639 | 360 ft | 2 kts | 167° |
| 2026-05-04 13:27 | 50.04083 | 8.54635 | 360 ft | 1 kts | 159° |
| 2026-05-04 13:27 | 50.04085 | 8.54634 | 360 ft | 0 kts | 159° |
| 2026-05-04 13:36 | 50.04084 | 8.54634 | 360 ft | 0 kts | 159° |
| 2026-05-04 13:37 | 50.04052 | 8.54653 | 360 ft | 4 kts | 159° |
| 2026-05-04 13:37 | 50.04017 | 8.54674 | 360 ft | 7 kts | 160° |
| 2026-05-04 13:37 | 50.03964 | 8.54692 | 359 ft | 7 kts | 206° |
| 2026-05-04 13:37 | 50.03939 | 8.54654 | 359 ft | 7 kts | 238° |
| 2026-05-04 13:38 | 50.03905 | 8.54535 | 359 ft | 10 kts | 248° |
| 2026-05-04 13:38 | 50.03877 | 8.54422 | 359 ft | 12 kts | 249° |
| 2026-05-04 13:38 | 50.03830 | 8.54303 | 359 ft | 13 kts | 236° |
| 2026-05-04 13:38 | 50.03788 | 8.54160 | 359 ft | 15 kts | 249° |
| 2026-05-04 13:39 | 50.03747 | 8.53992 | 359 ft | 17 kts | 249° |
| 2026-05-04 13:39 | 50.03701 | 8.53806 | 359 ft | 19 kts | 249° |
| 2026-05-04 13:39 | 50.03669 | 8.53673 | 359 ft | 20 kts | 249° |
| 2026-05-04 13:39 | 50.03599 | 8.53389 | 359 ft | 22 kts | 249° |
| 2026-05-04 13:40 | 50.03541 | 8.53153 | 359 ft | 23 kts | 250° |
| 2026-05-04 13:40 | 50.03482 | 8.52908 | 359 ft | 22 kts | 248° |
| 2026-05-04 13:40 | 50.03430 | 8.52714 | 359 ft | 16 kts | 249° |
| 2026-05-04 13:40 | 50.03375 | 8.52608 | 359 ft | 11 kts | 201° |
| 2026-05-04 13:41 | 50.03346 | 8.52601 | 359 ft | 0 kts | 179° |
| 2026-05-04 13:41 | 50.03327 | 8.52601 | 359 ft | 15 kts | 179° |
| 2026-05-04 13:41 | 50.03000 | 8.52603 | 359 ft | 77 kts | 181° |
| 2026-05-04 13:42 | 50.01162 | 8.52625 | 350 ft | 180 kts | 180° |
| 2026-05-04 13:42 | 49.99804 | 8.52634 | 503 ft | 199 kts | 181° |
| 2026-05-04 13:42 | 49.98449 | 8.52665 | 956 ft | 200 kts | 180° |
| 2026-05-04 13:42 | 49.97521 | 8.52729 | 1303 ft | 199 kts | 173° |
| 2026-05-04 13:43 | 49.95915 | 8.53995 | 2006 ft | 198 kts | 136° |
| 2026-05-04 13:43 | 49.95326 | 8.55148 | 2266 ft | 204 kts | 119° |
| 2026-05-04 13:43 | 49.94542 | 8.57773 | 2917 ft | 206 kts | 114° |
| 2026-05-04 13:43 | 49.94082 | 8.59915 | 3382 ft | 210 kts | 103° |
| 2026-05-04 13:44 | 49.93876 | 8.62196 | 3631 ft | 225 kts | 95° |
| 2026-05-04 13:44 | 49.93796 | 8.64731 | 3752 ft | 245 kts | 92° |
| 2026-05-04 13:44 | 49.93637 | 8.67482 | 3877 ft | 268 kts | 104° |
| 2026-05-04 13:44 | 49.92945 | 8.70215 | 4113 ft | 277 kts | 125° |
| 2026-05-04 13:45 | 49.91611 | 8.72433 | 4603 ft | 280 kts | 143° |
| 2026-05-04 13:45 | 49.90031 | 8.74187 | 5202 ft | 288 kts | 145° |
| 2026-05-04 13:45 | 49.88520 | 8.76102 | 5904 ft | 294 kts | 135° |
| 2026-05-04 13:45 | 49.87244 | 8.78502 | 6692 ft | 297 kts | 124° |
| 2026-05-04 13:46 | 49.86199 | 8.81185 | 7461 ft | 301 kts | 120° |
| 2026-05-04 13:46 | 49.85187 | 8.84041 | 8246 ft | 305 kts | 120° |
| 2026-05-04 13:46 | 49.84529 | 8.85916 | 8752 ft | 308 kts | 120° |
| 2026-05-04 13:46 | 49.83182 | 8.89740 | 9730 ft | 313 kts | 121° |
| 2026-05-04 13:47 | 49.82474 | 8.91725 | 10301 ft | 314 kts | 121° |
| 2026-05-04 13:47 | 49.81392 | 8.94733 | 10737 ft | 330 kts | 121° |
| 2026-05-04 13:47 | 49.79808 | 8.99102 | 10899 ft | 365 kts | 121° |
| 2026-05-04 13:47 | 49.78528 | 9.02648 | 11255 ft | 383 kts | 121° |
| 2026-05-04 13:48 | 49.77239 | 9.06326 | 11889 ft | 394 kts | 118° |
| 2026-05-04 13:48 | 49.76134 | 9.10207 | 12654 ft | 401 kts | 112° |
| 2026-05-04 13:48 | 49.75310 | 9.14325 | 13413 ft | 407 kts | 106° |
| 2026-05-04 13:48 | 49.74855 | 9.17176 | 13910 ft | 411 kts | 105° |
| 2026-05-04 13:49 | 49.73964 | 9.22979 | 14924 ft | 418 kts | 105° |
| 2026-05-04 13:49 | 49.73265 | 9.27286 | 15643 ft | 423 kts | 106° |
| 2026-05-04 13:49 | 49.72783 | 9.30219 | 16115 ft | 426 kts | 106° |
| 2026-05-04 13:49 | 49.71811 | 9.36080 | 17035 ft | 433 kts | 106° |
| 2026-05-04 13:50 | 49.71065 | 9.40581 | 17711 ft | 437 kts | 105° |
| 2026-05-04 13:50 | 49.70306 | 9.45191 | 18392 ft | 442 kts | 105° |
| 2026-05-04 13:50 | 49.69550 | 9.49801 | 19055 ft | 447 kts | 105° |
| 2026-05-04 13:50 | 49.68794 | 9.54451 | 19705 ft | 452 kts | 105° |
| 2026-05-04 13:51 | 49.68038 | 9.59145 | 20350 ft | 456 kts | 105° |
| 2026-05-04 13:51 | 49.67446 | 9.64017 | 20973 ft | 461 kts | 97° |
| 2026-05-04 13:51 | 49.67335 | 9.66941 | 21325 ft | 466 kts | 92° |
| 2026-05-04 13:51 | 49.67797 | 9.73401 | 22087 ft | 474 kts | 78° |
| 2026-05-04 13:52 | 49.69639 | 9.83347 | 23242 ft | 484 kts | 74° |
| 2026-05-04 13:52 | 49.70599 | 9.88259 | 23814 ft | 488 kts | 75° |
| 2026-05-04 13:52 | 49.71726 | 9.93295 | 24380 ft | 493 kts | 68° |
| 2026-05-04 13:53 | 49.73262 | 9.98049 | 24900 ft | 498 kts | 59° |
| 2026-05-04 13:53 | 49.75194 | 10.02552 | 25422 ft | 503 kts | 54° |
| 2026-05-04 13:53 | 49.77253 | 10.06894 | 25939 ft | 507 kts | 53° |
| 2026-05-04 13:54 | 49.81454 | 10.15809 | 27002 ft | 515 kts | 54° |
| 2026-05-04 13:54 | 49.83533 | 10.20353 | 27508 ft | 519 kts | 54° |
| 2026-05-04 13:54 | 49.87653 | 10.29468 | 28821 ft | 519 kts | 55° |
| 2026-05-04 13:55 | 49.89718 | 10.34042 | 29526 ft | 518 kts | 54° |
| 2026-05-04 13:55 | 49.93656 | 10.42731 | 30753 ft | 515 kts | 54° |
| 2026-05-04 13:55 | 49.95816 | 10.47475 | 30965 ft | 516 kts | 54° |
| 2026-05-04 13:56 | 49.99926 | 10.56467 | 30979 ft | 511 kts | 54° |
| 2026-05-04 13:57 | 50.04760 | 10.68950 | 31010 ft | 509 kts | 71° |
| 2026-05-04 13:57 | 50.05860 | 10.75786 | 31159 ft | 507 kts | 85° |
| 2026-05-04 13:58 | 50.05049 | 10.90127 | 32397 ft | 498 kts | 111° |
| 2026-05-04 13:58 | 50.01801 | 11.01536 | 32984 ft | 494 kts | 117° |
| 2026-05-04 13:58 | 50.00892 | 11.04822 | 32987 ft | 494 kts | 115° |
| 2026-05-04 13:59 | 49.98582 | 11.14837 | 32988 ft | 495 kts | 110° |
| 2026-05-04 14:00 | 49.95044 | 11.31741 | 32980 ft | 496 kts | 111° |
| 2026-05-04 14:00 | 49.91866 | 11.47018 | 32966 ft | 497 kts | 108° |
| 2026-05-04 14:01 | 49.90355 | 11.55561 | 32971 ft | 497 kts | 107° |
| 2026-05-04 14:02 | 49.87725 | 11.72749 | 32971 ft | 499 kts | 101° |